createdAt,value
2018-06-02T00:02:18.529Z,8.57
2018-06-02T00:04:46.008Z,8.40
2018-06-02T00:07:14.265Z,6.07
2018-06-02T00:09:41.729Z,5.10
2018-06-02T00:12:09.240Z,7.63
2018-06-02T00:14:36.697Z,6.83
2018-06-02T00:17:04.201Z,6.00
2018-06-02T00:19:31.760Z,6.27
2018-06-02T00:21:59.324Z,6.07
2018-06-02T00:24:26.889Z,6.00
2018-06-02T00:26:54.436Z,4.80
2018-06-02T00:29:21.905Z,5.27
2018-06-02T00:31:49.453Z,4.60
2018-06-02T00:34:16.935Z,4.43
2018-06-02T00:36:44.403Z,6.27
2018-06-02T00:39:12.632Z,7.73
2018-06-02T00:41:40.104Z,6.47
2018-06-02T00:44:07.672Z,6.60
2018-06-02T00:46:35.145Z,24.43
2018-06-02T00:49:02.608Z,9.73
2018-06-02T00:51:30.872Z,8.67
2018-06-02T00:53:58.350Z,6.57
2018-06-02T00:56:26.581Z,7.67
2018-06-02T00:58:54.045Z,7.03
2018-06-02T01:01:21.617Z,7.37
2018-06-02T01:03:49.072Z,4.67
2018-06-02T01:06:16.532Z,6.73
2018-06-02T01:08:43.989Z,6.17
2018-06-02T01:11:12.269Z,10.00
2018-06-02T01:13:39.730Z,5.77
2018-06-02T01:16:07.196Z,7.20
2018-06-02T01:18:34.745Z,4.90
2018-06-02T01:21:02.213Z,11.70
2018-06-02T01:23:29.779Z,21.33
2018-06-02T01:25:57.241Z,14.13
2018-06-02T01:28:25.509Z,17.20
2018-06-02T01:30:53.053Z,6.30
2018-06-02T01:33:20.535Z,15.07
2018-06-02T01:35:48.804Z,13.57
2018-06-02T01:38:16.391Z,12.20
2018-06-02T01:40:44.629Z,25.93
2018-06-02T01:43:12.136Z,8.27
2018-06-02T01:45:39.605Z,7.03
2018-06-02T01:48:07.077Z,10.30
2018-06-02T01:50:34.560Z,9.40
2018-06-02T01:53:02.022Z,6.30
2018-06-02T01:55:29.489Z,6.83
2018-06-02T01:57:56.964Z,7.77
2018-06-02T02:00:25.197Z,6.00
2018-06-02T02:02:52.669Z,11.80
2018-06-02T02:05:20.229Z,11.70
2018-06-02T02:07:47.697Z,5.07
2018-06-02T02:10:15.169Z,7.60
2018-06-02T02:12:42.645Z,5.63
2018-06-02T02:15:10.886Z,4.43
2018-06-02T02:17:38.345Z,5.47
2018-06-02T02:20:05.812Z,3.77
2018-06-02T02:22:33.272Z,7.40
2018-06-02T02:25:00.734Z,7.77
2018-06-02T02:27:28.273Z,8.30
2018-06-02T02:29:55.753Z,5.30
2018-06-02T02:32:23.217Z,12.73
2018-06-02T02:34:51.457Z,8.23
2018-06-02T02:37:18.934Z,7.07
2018-06-02T02:39:46.419Z,6.53
2018-06-02T02:42:13.865Z,4.97
2018-06-02T02:44:42.112Z,6.20
2018-06-02T02:47:10.401Z,6.20
2018-06-02T02:49:37.957Z,6.93
2018-06-02T02:52:05.418Z,6.30
2018-06-02T02:54:33.182Z,5.63
2018-06-02T02:57:00.745Z,6.03
2018-06-02T02:59:28.224Z,5.47
2018-06-02T03:01:56.459Z,6.93
2018-06-02T03:04:23.922Z,6.27
2018-06-02T03:06:51.479Z,5.47
2018-06-02T03:09:18.942Z,8.37
2018-06-02T03:11:46.400Z,4.47
2018-06-02T03:14:13.869Z,5.73
2018-06-02T03:16:41.353Z,6.10
2018-06-02T03:19:09.644Z,5.93
2018-06-02T03:21:37.069Z,6.73
2018-06-02T03:24:04.529Z,6.00
2018-06-02T03:26:32.085Z,6.23
2018-06-02T03:28:59.549Z,8.73
2018-06-02T03:31:27.161Z,6.27
2018-06-02T03:33:54.627Z,6.47
2018-06-02T03:36:22.090Z,5.50
2018-06-02T03:38:49.560Z,5.13
2018-06-02T03:41:17.036Z,8.67
2018-06-02T03:43:44.501Z,5.57
2018-06-02T03:46:11.965Z,5.27
2018-06-02T03:48:39.431Z,5.57
2018-06-02T03:51:07.685Z,5.50
2018-06-02T03:53:35.142Z,5.07
2018-06-02T03:56:02.665Z,5.53
2018-06-02T03:58:30.221Z,8.20
2018-06-02T04:00:57.721Z,6.03
2018-06-02T04:03:25.182Z,5.83
2018-06-02T04:05:52.641Z,5.27
2018-06-02T04:08:20.201Z,4.80
2018-06-02T04:10:47.673Z,5.83
2018-06-02T04:13:15.221Z,5.37
2018-06-02T04:15:42.777Z,4.60
2018-06-02T04:18:10.237Z,6.03
2018-06-02T04:20:37.713Z,10.40
2018-06-02T04:23:05.941Z,6.03
2018-06-02T04:25:33.412Z,5.73
2018-06-02T04:28:00.875Z,6.33
2018-06-02T04:30:28.350Z,5.47
2018-06-02T04:32:55.912Z,6.73
2018-06-02T04:35:23.478Z,9.93
2018-06-02T04:37:50.944Z,8.77
2018-06-02T04:40:19.192Z,9.07
2018-06-02T04:42:46.761Z,7.43
2018-06-02T04:45:14.222Z,7.00
2018-06-02T04:47:41.781Z,6.80
2018-06-02T04:50:09.337Z,9.30
2018-06-02T04:52:36.801Z,6.37
2018-06-02T04:55:04.269Z,7.60
2018-06-02T04:57:31.820Z,8.27
2018-06-02T04:59:59.272Z,6.93
2018-06-02T05:02:26.740Z,5.90
2018-06-02T05:04:54.221Z,8.53
2018-06-02T05:07:22.469Z,7.97
2018-06-02T05:09:49.933Z,9.87
2018-06-02T05:12:17.485Z,7.10
2018-06-02T05:14:44.965Z,6.60
2018-06-02T05:17:12.509Z,6.43
2018-06-02T05:19:40.065Z,6.33
2018-06-02T05:22:07.627Z,7.93
2018-06-02T05:24:35.190Z,9.07
2018-06-02T05:27:02.665Z,7.83
2018-06-02T05:29:30.925Z,5.60
2018-06-02T05:31:58.485Z,7.53
2018-06-02T05:34:25.963Z,5.70
2018-06-02T05:36:54.204Z,4.40
2018-06-02T05:39:21.700Z,4.47
2018-06-02T05:41:49.237Z,5.70
2018-06-02T05:44:16.857Z,5.13
2018-06-02T05:46:44.314Z,4.60
2018-06-02T05:49:11.785Z,6.30
2018-06-02T05:51:39.254Z,5.90
2018-06-02T05:54:06.734Z,4.33
2018-06-02T05:56:34.293Z,4.97
2018-06-02T05:59:01.769Z,4.63
2018-06-02T06:01:30.007Z,5.23
2018-06-02T06:03:57.469Z,5.07
2018-06-02T06:06:24.929Z,5.13
2018-06-02T06:08:52.385Z,5.87
2018-06-02T06:11:19.853Z,5.27
2018-06-02T06:13:47.317Z,6.93
2018-06-02T06:16:14.777Z,4.30
2018-06-02T06:18:42.245Z,7.07
2018-06-02T06:21:09.710Z,6.70
2018-06-02T06:23:37.248Z,5.40
2018-06-02T06:26:04.704Z,4.47
2018-06-02T06:28:32.168Z,5.57
2018-06-02T06:30:59.660Z,6.27
2018-06-02T06:33:27.889Z,4.13
2018-06-02T06:35:55.349Z,5.00
2018-06-02T06:38:22.921Z,5.63
2018-06-02T06:40:50.484Z,5.47
2018-06-02T06:43:17.954Z,5.30
2018-06-02T06:45:45.422Z,4.80
2018-06-02T06:48:13.657Z,6.87
2018-06-02T06:50:41.177Z,5.13
2018-06-02T06:53:08.684Z,4.77
2018-06-02T06:55:36.269Z,5.23
2018-06-02T06:58:03.769Z,5.87
2018-06-02T07:00:31.265Z,5.80
2018-06-02T07:02:58.736Z,5.23
2018-06-02T07:05:26.290Z,4.90
2018-06-02T07:07:53.849Z,5.07
2018-06-02T07:10:21.305Z,5.93
2018-06-02T07:12:48.765Z,4.60
2018-06-02T07:15:16.248Z,7.10
2018-06-02T07:17:44.508Z,5.90
2018-06-02T07:20:11.968Z,4.93
2018-06-02T07:22:39.527Z,4.07
2018-06-02T07:25:06.988Z,4.80
2018-06-02T07:27:35.371Z,5.37
2018-06-02T07:30:02.876Z,4.83
2018-06-02T07:32:30.335Z,6.20
2018-06-02T07:34:58.665Z,6.90
2018-06-02T07:37:26.125Z,3.87
2018-06-02T07:39:53.674Z,4.60
2018-06-02T07:42:21.233Z,3.83
2018-06-02T07:44:48.801Z,5.43
2018-06-02T07:47:16.261Z,6.83
2018-06-02T07:49:43.746Z,5.07
2018-06-02T07:52:11.965Z,6.10
2018-06-02T07:54:39.437Z,4.27
2018-06-02T07:57:06.891Z,4.17
2018-06-02T07:59:34.422Z,5.13
2018-06-02T08:02:01.921Z,4.10
2018-06-02T08:04:29.485Z,4.50
2018-06-02T08:06:56.944Z,6.33
2018-06-02T08:09:24.467Z,3.90
2018-06-02T08:11:52.678Z,5.57
2018-06-02T08:14:20.905Z,4.67
2018-06-02T08:16:48.468Z,8.23
2018-06-02T08:19:15.972Z,5.30
2018-06-02T08:21:43.436Z,3.73
2018-06-02T08:24:10.902Z,6.90
2018-06-02T08:26:39.240Z,3.80
2018-06-02T08:29:06.685Z,3.97
2018-06-02T08:31:34.145Z,6.27
2018-06-02T08:34:01.605Z,4.47
2018-06-02T08:36:29.092Z,3.97
2018-06-02T08:38:56.696Z,4.10
2018-06-02T08:41:24.109Z,4.27
2018-06-02T08:43:51.681Z,4.03
2018-06-02T08:46:19.254Z,4.83
2018-06-02T08:48:46.798Z,4.07
2018-06-02T08:51:15.137Z,4.17
2018-06-02T08:53:42.639Z,3.47
2018-06-02T08:56:10.097Z,3.50
2018-06-02T08:58:37.565Z,4.03
2018-06-02T09:01:05.037Z,2.67
2018-06-02T09:03:33.316Z,3.03
2018-06-02T09:06:01.581Z,2.83
2018-06-02T09:08:29.037Z,2.80
2018-06-02T09:10:56.500Z,2.63
2018-06-02T09:13:24.757Z,2.80
2018-06-02T09:15:52.216Z,2.80
2018-06-02T09:18:19.774Z,3.23
2018-06-02T09:20:47.233Z,3.93
2018-06-02T09:23:14.788Z,4.27
2018-06-02T09:25:42.357Z,4.23
2018-06-02T09:28:09.821Z,5.60
2018-06-02T09:30:37.372Z,7.10
2018-06-02T09:33:04.842Z,6.00
2018-06-02T09:35:32.301Z,3.80
2018-06-02T09:37:59.765Z,4.27
2018-06-02T09:40:28.017Z,4.53
2018-06-02T09:42:55.476Z,4.30
2018-06-02T09:45:22.936Z,4.70
2018-06-02T09:47:50.534Z,6.30
2018-06-02T09:50:18.053Z,3.70
2018-06-02T09:52:45.618Z,4.10
2018-06-02T09:55:13.084Z,4.40
2018-06-02T09:57:40.660Z,3.83
2018-06-02T10:00:08.109Z,2.97
2018-06-02T10:02:35.656Z,4.60
2018-06-02T10:05:03.932Z,4.50
2018-06-02T10:07:31.490Z,3.13
2018-06-02T10:09:58.956Z,3.73
2018-06-02T10:12:26.516Z,2.60
2018-06-02T10:14:53.969Z,2.70
2018-06-02T10:17:21.429Z,3.03
2018-06-02T10:19:48.888Z,3.07
2018-06-02T10:22:16.344Z,2.70
2018-06-02T10:24:44.616Z,4.37
2018-06-02T10:27:12.076Z,4.47
2018-06-02T10:29:39.693Z,4.83
2018-06-02T10:32:07.109Z,4.87
2018-06-02T10:34:34.581Z,3.27
2018-06-02T10:37:02.893Z,3.23
2018-06-02T10:39:30.401Z,3.33
2018-06-02T10:41:57.964Z,4.50
2018-06-02T10:44:25.436Z,3.30
2018-06-02T10:46:53.689Z,4.67
2018-06-02T10:49:21.144Z,3.80
2018-06-02T10:51:48.604Z,4.33
2018-06-02T10:54:16.161Z,8.23
2018-06-02T10:56:43.621Z,4.53
2018-06-02T10:59:11.084Z,2.80
2018-06-02T11:01:38.594Z,2.90
2018-06-02T11:04:06.796Z,2.93
2018-06-02T11:06:34.278Z,2.87
2018-06-02T11:09:01.842Z,2.70
2018-06-02T11:11:29.313Z,2.60
2018-06-02T11:13:56.810Z,5.27
2018-06-02T11:16:24.273Z,2.40
2018-06-02T11:18:51.740Z,2.50
2018-06-02T11:21:19.234Z,2.37
2018-06-02T11:23:46.698Z,4.00
2018-06-02T11:26:14.249Z,4.40
2018-06-02T11:28:41.808Z,4.30
2018-06-02T11:31:09.366Z,3.93
2018-06-02T11:33:36.929Z,4.03
2018-06-02T11:36:04.393Z,6.73
2018-06-02T11:38:31.860Z,3.27
2018-06-02T11:40:59.321Z,3.37
2018-06-02T11:43:27.560Z,2.60
2018-06-02T11:45:55.038Z,2.50
2018-06-02T11:48:22.658Z,3.40
2018-06-02T11:50:50.158Z,4.13
2018-06-02T11:53:17.635Z,2.73
2018-06-02T11:55:45.101Z,3.77
2018-06-02T11:58:13.333Z,3.93
2018-06-02T12:00:40.792Z,3.47
2018-06-02T12:03:08.268Z,3.20
2018-06-02T12:05:35.836Z,3.67
2018-06-02T12:08:03.293Z,3.67
2018-06-02T12:10:30.848Z,2.87
2018-06-02T12:12:58.404Z,3.40
2018-06-02T12:15:25.969Z,3.17
2018-06-02T12:17:54.199Z,2.67
2018-06-02T12:20:21.710Z,3.00
2018-06-02T12:22:49.249Z,2.80
2018-06-02T12:25:16.704Z,5.47
2018-06-02T12:27:44.188Z,3.43
2018-06-02T12:30:11.742Z,3.43
2018-06-02T12:32:39.201Z,2.80
2018-06-02T12:35:07.433Z,2.90
2018-06-02T12:37:34.906Z,3.00
2018-06-02T12:40:02.381Z,3.43
2018-06-02T12:42:29.853Z,3.17
2018-06-02T12:44:57.412Z,2.97
2018-06-02T12:47:24.884Z,3.13
2018-06-02T12:49:52.345Z,3.27
2018-06-02T12:52:20.617Z,2.53
2018-06-02T12:54:48.861Z,3.57
2018-06-02T12:57:16.388Z,3.50
2018-06-02T12:59:43.840Z,4.00
2018-06-02T13:02:11.301Z,2.77
2018-06-02T13:04:38.817Z,2.83
2018-06-02T13:07:06.286Z,2.60
2018-06-02T13:09:34.530Z,2.90
2018-06-02T13:12:02.009Z,2.60
2018-06-02T13:14:29.569Z,3.17
2018-06-02T13:16:57.131Z,3.37
2018-06-02T13:19:24.597Z,3.43
2018-06-02T13:21:52.869Z,2.50
2018-06-02T13:24:20.335Z,3.53
2018-06-02T13:26:48.557Z,3.57
2018-06-02T13:29:16.028Z,2.77
2018-06-02T13:31:43.501Z,2.93
2018-06-02T13:34:10.972Z,3.17
2018-06-02T13:36:38.442Z,4.10
2018-06-02T13:39:05.989Z,5.30
2018-06-02T13:41:33.558Z,4.27
2018-06-02T13:44:01.029Z,3.00
2018-06-02T13:46:28.573Z,2.83
2018-06-02T13:48:56.168Z,3.10
2018-06-02T13:51:24.446Z,3.73
2018-06-02T13:53:52.653Z,3.87
2018-06-02T13:56:20.140Z,2.70
2018-06-02T13:58:47.713Z,3.37
2018-06-02T14:01:15.189Z,3.43
2018-06-02T14:03:43.444Z,2.60
2018-06-02T14:06:10.921Z,2.60
2018-06-02T14:08:39.149Z,4.03
2018-06-02T14:11:07.142Z,2.83
2018-06-02T14:13:34.713Z,2.93
2018-06-02T14:16:02.272Z,3.23
2018-06-02T14:18:29.759Z,2.20
2018-06-02T14:20:58.060Z,3.00
2018-06-02T14:23:25.521Z,3.50
2018-06-02T14:25:52.981Z,2.30
2018-06-02T14:28:20.476Z,4.93
2018-06-02T14:30:48.071Z,3.00
2018-06-02T14:33:15.506Z,3.60
2018-06-02T14:35:43.058Z,4.33
2018-06-02T14:38:10.806Z,3.00
2018-06-02T14:40:38.179Z,3.47
2018-06-02T14:43:05.695Z,4.60
2018-06-02T14:45:33.206Z,2.50
2018-06-02T14:48:00.678Z,2.50
2018-06-02T14:50:28.989Z,3.83
2018-06-02T14:52:56.494Z,3.00
2018-06-02T14:55:23.968Z,2.70
2018-06-02T14:57:52.291Z,3.30
2018-06-02T15:00:19.749Z,2.47
2018-06-02T15:02:47.225Z,2.53
2018-06-02T15:05:14.718Z,2.70
2018-06-02T15:07:42.150Z,3.00
2018-06-02T15:10:09.637Z,3.53
2018-06-02T15:12:37.897Z,3.80
2018-06-02T15:15:05.356Z,3.00
2018-06-02T15:17:32.828Z,2.47
2018-06-02T15:20:00.292Z,2.50
2018-06-02T15:22:28.529Z,2.43
2018-06-02T15:24:55.994Z,2.50
2018-06-02T15:27:23.565Z,3.53
2018-06-02T15:29:51.037Z,4.10
2018-06-02T15:32:19.271Z,3.60
2018-06-02T15:34:46.765Z,2.53
2018-06-02T15:37:14.225Z,2.30
2018-06-02T15:39:41.774Z,2.70
2018-06-02T15:42:09.241Z,2.40
2018-06-02T15:44:36.804Z,4.50
2018-06-02T15:47:04.261Z,2.93
2018-06-02T15:49:31.721Z,2.40
2018-06-02T15:51:59.268Z,2.70
2018-06-02T15:54:26.894Z,3.03
2018-06-02T15:56:54.454Z,3.27
2018-06-02T15:59:21.916Z,2.80
2018-06-02T16:01:49.413Z,2.40
2018-06-02T16:04:16.975Z,5.07
2018-06-02T16:06:44.545Z,2.93
2018-06-02T16:09:12.010Z,3.43
2018-06-02T16:11:39.473Z,2.50
2018-06-02T16:14:07.729Z,3.13
2018-06-02T16:16:35.289Z,3.83
2018-06-02T16:19:02.849Z,2.50
2018-06-02T16:21:30.406Z,4.73
2018-06-02T16:23:57.969Z,2.70
2018-06-02T16:26:25.429Z,2.97
2018-06-02T16:28:52.898Z,3.93
2018-06-02T16:31:21.129Z,2.30
2018-06-02T16:33:48.627Z,2.43
2018-06-02T16:36:16.182Z,2.70
2018-06-02T16:38:43.767Z,2.80
2018-06-02T16:41:12.021Z,3.23
2018-06-02T16:43:40.250Z,2.93
2018-06-02T16:46:07.756Z,4.80
2018-06-02T16:48:35.314Z,2.70
2018-06-02T16:51:02.879Z,2.67
2018-06-02T16:53:30.397Z,3.67
2018-06-02T16:55:57.889Z,3.00
2018-06-02T16:58:25.352Z,2.53
2018-06-02T17:00:52.970Z,2.83
2018-06-02T17:03:20.468Z,3.73
2018-06-02T17:05:47.943Z,2.60
2018-06-02T17:08:15.489Z,3.37
2018-06-02T17:10:42.948Z,3.83
2018-06-02T17:13:10.426Z,2.50
2018-06-02T17:15:38.743Z,2.67
2018-06-02T17:18:06.193Z,2.53
2018-06-02T17:20:33.663Z,3.00
2018-06-02T17:23:01.125Z,2.37
2018-06-02T17:25:28.617Z,2.77
2018-06-02T17:27:56.082Z,3.93
2018-06-02T17:30:23.537Z,4.10
2018-06-02T17:32:51.001Z,2.27
2018-06-02T17:35:18.549Z,4.47
2018-06-02T17:37:46.013Z,2.77
2018-06-02T17:40:13.585Z,2.87
2018-06-02T17:42:41.045Z,5.13
2018-06-02T17:45:08.565Z,2.63
2018-06-02T17:47:36.110Z,2.83
2018-06-02T17:50:03.667Z,2.70
2018-06-02T17:52:31.128Z,2.73
2018-06-02T17:54:58.585Z,4.17
2018-06-02T17:57:26.053Z,3.27
2018-06-02T17:59:53.543Z,2.70
2018-06-02T18:02:21.113Z,3.00
2018-06-02T18:04:48.584Z,4.83
2018-06-02T18:07:16.813Z,3.53
2018-06-02T18:09:44.273Z,2.90
2018-06-02T18:12:11.738Z,3.37
2018-06-02T18:14:39.210Z,4.27
2018-06-02T18:17:06.681Z,2.50
2018-06-02T18:19:34.239Z,3.40
2018-06-02T18:22:01.801Z,2.77
2018-06-02T18:24:29.418Z,2.23
2018-06-02T18:26:56.892Z,2.83
2018-06-02T18:29:24.373Z,2.77
2018-06-02T18:31:51.832Z,2.47
2018-06-02T18:34:19.448Z,5.43
2018-06-02T18:36:46.901Z,3.37
2018-06-02T18:39:14.468Z,4.27
2018-06-02T18:41:41.969Z,2.93
2018-06-02T18:44:09.441Z,3.20
2018-06-02T18:46:36.906Z,3.53
2018-06-02T18:49:05.138Z,4.13
2018-06-02T18:51:32.612Z,6.53
2018-06-02T18:54:00.076Z,9.73
2018-06-02T18:56:27.640Z,3.63
2018-06-02T18:58:55.097Z,6.00
2018-06-02T19:01:22.570Z,5.43
2018-06-02T19:03:50.030Z,4.60
2018-06-02T19:06:18.285Z,6.07
2018-06-02T19:08:45.844Z,6.77
2018-06-02T19:11:13.313Z,11.77
2018-06-02T19:13:40.773Z,5.97
2018-06-02T19:16:08.385Z,14.00
2018-06-02T19:18:35.840Z,9.57
2018-06-02T19:21:03.368Z,3.63
2018-06-02T19:23:31.628Z,6.00
2018-06-02T19:25:59.107Z,4.90
2018-06-02T19:28:27.324Z,4.27
2018-06-02T19:30:54.817Z,6.63
2018-06-02T19:33:22.284Z,4.73
2018-06-02T19:35:49.756Z,8.80
2018-06-02T19:38:17.990Z,9.43
2018-06-02T19:40:45.449Z,5.50
2018-06-02T19:43:12.929Z,6.10
2018-06-02T19:45:40.485Z,14.33
2018-06-02T19:48:08.104Z,7.33
2018-06-02T19:50:35.509Z,9.57
2018-06-02T19:53:02.983Z,10.23
2018-06-02T19:55:31.241Z,10.53
2018-06-02T19:57:58.797Z,8.87
2018-06-02T20:00:26.357Z,7.17
2018-06-02T20:02:54.584Z,9.83
2018-06-02T20:05:22.049Z,6.07
2018-06-02T20:07:49.585Z,10.60
2018-06-02T20:10:17.113Z,12.80
2018-06-02T20:12:44.681Z,19.73
2018-06-02T20:15:12.153Z,21.07
2018-06-02T20:17:40.417Z,9.70
2018-06-02T20:20:07.901Z,18.30
2018-06-02T20:22:36.155Z,37.83
2018-06-02T20:25:03.634Z,20.70
2018-06-02T20:27:31.892Z,31.37
2018-06-02T20:29:59.369Z,34.43
2018-06-02T20:32:27.613Z,26.40
2018-06-02T20:34:55.176Z,12.47
2018-06-02T20:37:22.732Z,18.70
2018-06-02T20:39:50.296Z,22.77
2018-06-02T20:42:17.856Z,25.57
2018-06-02T20:44:45.421Z,32.43
2018-06-02T20:47:12.889Z,6.37
2018-06-02T20:49:40.353Z,17.30
2018-06-02T20:52:08.613Z,17.50
2018-06-02T20:54:36.086Z,20.33
2018-06-02T20:57:04.317Z,9.37
2018-06-02T20:59:31.792Z,10.03
2018-06-02T21:02:00.141Z,14.37
2018-06-02T21:04:27.643Z,11.77
2018-06-02T21:06:55.112Z,7.17
2018-06-02T21:09:22.576Z,5.33
2018-06-02T21:11:50.839Z,9.50
2018-06-02T21:14:18.300Z,6.87
2018-06-02T21:16:45.765Z,11.53
2018-06-02T21:19:13.225Z,9.33
2018-06-02T21:21:40.768Z,6.90
2018-06-02T21:24:08.999Z,10.03
2018-06-02T21:26:36.461Z,7.07
2018-06-02T21:29:03.922Z,7.20
2018-06-02T21:31:31.417Z,11.07
2018-06-02T21:33:58.981Z,8.33
2018-06-02T21:36:27.263Z,6.50
2018-06-02T21:38:54.739Z,9.37
2018-06-02T21:41:22.977Z,8.30
2018-06-02T21:43:50.459Z,16.80
2018-06-02T21:46:17.936Z,6.20
2018-06-02T21:48:46.152Z,8.40
2018-06-02T21:51:13.625Z,5.83
2018-06-02T21:53:41.105Z,4.93
2018-06-02T21:56:08.561Z,4.67
2018-06-02T21:58:36.028Z,8.43
2018-06-02T22:01:03.582Z,6.33
2018-06-02T22:03:31.141Z,7.90
2018-06-02T22:05:58.602Z,6.63
2018-06-02T22:08:26.072Z,5.10
2018-06-02T22:10:53.620Z,4.97
2018-06-02T22:13:21.081Z,7.53
2018-06-02T22:15:48.540Z,6.63
2018-06-02T22:18:16.017Z,5.80
2018-06-02T22:20:44.285Z,4.97
2018-06-02T22:23:11.830Z,7.70
2018-06-02T22:25:39.288Z,9.90
2018-06-02T22:28:06.754Z,6.20
2018-06-02T22:30:34.220Z,5.97
2018-06-02T22:33:02.480Z,7.00
2018-06-02T22:35:30.036Z,6.93
2018-06-02T22:37:57.509Z,6.77
2018-06-02T22:40:24.978Z,7.10
2018-06-02T22:42:53.247Z,5.07
2018-06-02T22:45:20.790Z,6.27
2018-06-02T22:47:48.251Z,5.63
2018-06-02T22:50:15.730Z,4.77
2018-06-02T22:52:43.957Z,5.10
2018-06-02T22:55:11.414Z,7.27
2018-06-02T22:57:38.904Z,4.87
2018-06-02T23:00:07.135Z,5.27
2018-06-02T23:02:34.597Z,4.73
2018-06-02T23:05:02.072Z,5.00
2018-06-02T23:07:29.531Z,4.50
2018-06-02T23:09:56.985Z,5.67
2018-06-02T23:12:24.456Z,4.80
2018-06-02T23:14:51.909Z,5.30
2018-06-02T23:17:19.385Z,4.80
2018-06-02T23:19:46.850Z,8.93
2018-06-02T23:22:38.845Z,6.03
2018-06-02T23:25:06.308Z,3.97
2018-06-02T23:27:33.781Z,6.47
2018-06-02T23:30:01.237Z,5.90
2018-06-02T23:32:28.817Z,6.97
2018-06-02T23:34:57.091Z,5.20
2018-06-02T23:37:24.661Z,8.83
2018-06-02T23:39:52.214Z,5.10
2018-06-02T23:42:19.768Z,9.73
2018-06-02T23:44:47.228Z,6.87
2018-06-02T23:47:14.784Z,6.93
2018-06-02T23:49:42.349Z,6.80
2018-06-02T23:52:09.913Z,6.17
2018-06-02T23:54:37.381Z,6.43
2018-06-02T23:57:04.929Z,6.27
2018-06-02T23:59:33.264Z,7.13
